createdAt,value
2017-08-10T00:00:51.552Z,24.66
2017-08-10T00:03:19.211Z,24.63
2017-08-10T00:05:46.860Z,24.67
2017-08-10T00:08:14.494Z,24.57
2017-08-10T00:10:42.038Z,24.73
2017-08-10T00:13:09.621Z,24.69
2017-08-10T00:15:37.188Z,24.73
2017-08-10T00:18:04.752Z,24.70
2017-08-10T00:20:32.368Z,24.74
2017-08-10T00:22:59.947Z,24.73
2017-08-10T00:25:27.547Z,24.76
2017-08-10T00:27:55.107Z,24.77
2017-08-10T00:30:22.739Z,24.72
2017-08-10T00:32:50.298Z,24.79
2017-08-10T00:35:17.910Z,24.66
2017-08-10T00:37:45.491Z,24.53
2017-08-10T00:40:13.108Z,24.60
2017-08-10T00:42:40.702Z,24.58
2017-08-10T00:45:08.286Z,24.46
2017-08-10T00:47:35.876Z,24.53
2017-08-10T00:50:03.457Z,24.34
2017-08-10T00:52:31.021Z,24.56
2017-08-10T00:54:58.687Z,24.55
2017-08-10T00:57:26.972Z,24.60
2017-08-10T00:59:54.592Z,24.60
2017-08-10T01:02:22.181Z,24.62
2017-08-10T01:04:49.757Z,24.71
2017-08-10T01:07:17.309Z,24.68
2017-08-10T01:09:44.894Z,24.61
2017-08-10T01:12:12.429Z,24.59
2017-08-10T01:14:39.996Z,24.66
2017-08-10T01:17:07.602Z,24.56
2017-08-10T01:19:35.197Z,24.61
2017-08-10T01:22:02.784Z,24.64
2017-08-10T01:24:30.365Z,24.52
2017-08-10T01:26:57.918Z,24.55
2017-08-10T01:29:25.682Z,24.66
2017-08-10T01:31:53.255Z,24.48
2017-08-10T01:34:20.841Z,24.46
2017-08-10T01:36:48.606Z,24.41
2017-08-10T01:39:16.365Z,24.46
2017-08-10T01:41:43.975Z,24.47
2017-08-10T01:44:11.781Z,24.40
2017-08-10T01:46:39.811Z,24.31
2017-08-10T01:49:07.385Z,24.13
2017-08-10T01:51:36.197Z,24.05
2017-08-10T01:54:03.821Z,24.01
2017-08-10T01:56:31.430Z,24.09
2017-08-10T01:58:59.148Z,24.13
2017-08-10T02:01:26.780Z,24.01
2017-08-10T02:03:54.471Z,23.89
2017-08-10T02:06:22.336Z,23.78
2017-08-10T02:08:49.905Z,23.81
2017-08-10T02:11:17.480Z,23.79
2017-08-10T02:13:45.055Z,23.84
2017-08-10T02:16:12.647Z,23.85
2017-08-10T02:18:40.216Z,23.86
2017-08-10T02:21:07.768Z,23.82
2017-08-10T02:23:35.364Z,23.72
2017-08-10T02:26:02.930Z,23.75
2017-08-10T02:28:30.539Z,23.70
2017-08-10T02:30:58.157Z,23.64
2017-08-10T02:33:25.750Z,23.53
2017-08-10T02:35:53.324Z,23.48
2017-08-10T02:38:20.925Z,23.35
2017-08-10T02:40:48.456Z,23.44
2017-08-10T02:43:15.997Z,23.53
2017-08-10T02:45:43.588Z,23.70
2017-08-10T02:48:11.179Z,23.77
2017-08-10T02:50:39.033Z,23.77
2017-08-10T02:53:06.629Z,23.70
2017-08-10T02:55:34.203Z,23.29
2017-08-10T02:58:01.755Z,23.45
2017-08-10T03:00:29.395Z,23.54
2017-08-10T03:02:56.985Z,23.44
2017-08-10T03:05:24.585Z,23.41
2017-08-10T03:07:52.176Z,23.34
2017-08-10T03:10:19.780Z,23.33
2017-08-10T03:12:47.370Z,23.29
2017-08-10T03:15:14.971Z,23.39
2017-08-10T03:17:42.521Z,23.38
2017-08-10T03:20:10.055Z,23.27
2017-08-10T03:22:37.634Z,23.42
2017-08-10T03:25:05.165Z,23.46
2017-08-10T03:27:33.282Z,23.36
2017-08-10T03:30:00.869Z,23.40
2017-08-10T03:32:28.426Z,23.60
2017-08-10T03:34:56.204Z,23.70
2017-08-10T03:37:23.814Z,23.71
2017-08-10T03:39:51.423Z,23.82
2017-08-10T03:42:19.011Z,23.89
2017-08-10T03:44:46.576Z,23.84
2017-08-10T03:47:14.149Z,23.75
2017-08-10T03:49:41.686Z,23.78
2017-08-10T03:52:09.243Z,23.78
2017-08-10T03:54:36.842Z,23.86
2017-08-10T03:57:04.436Z,23.87
2017-08-10T03:59:32.008Z,23.88
2017-08-10T04:01:59.595Z,23.85
2017-08-10T04:04:27.152Z,23.62
2017-08-10T04:06:54.740Z,23.74
2017-08-10T04:09:22.320Z,23.87
2017-08-10T04:11:50.085Z,23.90
2017-08-10T04:14:17.645Z,23.92
2017-08-10T04:16:45.221Z,23.84
2017-08-10T04:19:12.778Z,23.77
2017-08-10T04:21:40.332Z,24.05
2017-08-10T04:24:07.919Z,24.23
2017-08-10T04:26:35.469Z,24.36
2017-08-10T04:29:03.023Z,24.52
2017-08-10T04:31:30.599Z,24.62
2017-08-10T04:33:58.173Z,24.70
2017-08-10T04:36:25.741Z,24.89
2017-08-10T04:38:54.080Z,25.52
2017-08-10T04:41:21.608Z,25.68
2017-08-10T04:43:49.183Z,25.36
2017-08-10T04:46:16.744Z,25.15
2017-08-10T04:48:44.289Z,25.08
2017-08-10T04:51:11.868Z,24.58
2017-08-10T04:53:39.460Z,24.60
2017-08-10T04:56:07.051Z,24.73
2017-08-10T04:58:34.812Z,24.52
2017-08-10T05:01:02.412Z,24.84
2017-08-10T05:03:30.006Z,24.85
2017-08-10T05:05:57.570Z,25.06
2017-08-10T05:08:25.144Z,25.20
2017-08-10T05:10:52.696Z,25.13
2017-08-10T05:13:20.292Z,25.19
2017-08-10T05:15:47.890Z,25.41
2017-08-10T05:18:15.712Z,25.57
2017-08-10T05:20:43.305Z,25.58
2017-08-10T05:23:10.900Z,26.03
2017-08-10T05:25:38.464Z,26.25
2017-08-10T05:28:06.078Z,26.09
2017-08-10T05:30:33.737Z,26.26
2017-08-10T05:33:01.320Z,26.73
2017-08-10T05:35:28.899Z,26.78
2017-08-10T05:37:56.501Z,27.07
2017-08-10T05:40:24.168Z,27.61
2017-08-10T05:42:51.771Z,28.11
2017-08-10T05:45:19.380Z,28.60
2017-08-10T05:47:47.231Z,28.67
2017-08-10T05:50:14.824Z,28.76
2017-08-10T05:52:42.421Z,29.20
2017-08-10T05:55:10.789Z,29.42
2017-08-10T05:57:38.414Z,29.62
2017-08-10T06:00:07.150Z,29.96
2017-08-10T06:02:34.741Z,30.41
2017-08-10T06:05:02.273Z,30.87
2017-08-10T06:07:30.106Z,31.05
2017-08-10T06:09:57.651Z,30.76
2017-08-10T06:12:25.209Z,31.02
2017-08-10T06:14:52.797Z,30.95
2017-08-10T06:17:20.313Z,31.40
2017-08-10T06:19:47.871Z,31.48
2017-08-10T06:22:15.432Z,31.66
2017-08-10T06:24:42.960Z,32.21
2017-08-10T06:34:30.213Z,32.26
2017-08-10T06:36:58.113Z,32.43
2017-08-10T06:39:25.983Z,31.93
2017-08-10T06:41:53.974Z,32.06
2017-08-10T06:44:21.480Z,32.38
2017-08-10T06:46:49.040Z,32.41
2017-08-10T06:49:17.052Z,32.31
2017-08-10T06:51:44.627Z,32.36
2017-08-10T06:54:12.235Z,32.74
2017-08-10T06:56:39.809Z,33.14
2017-08-10T06:59:07.342Z,33.34
2017-08-10T07:01:34.917Z,33.01
2017-08-10T07:04:02.427Z,32.64
2017-08-10T07:06:30.167Z,32.84
2017-08-10T07:08:57.751Z,32.78
2017-08-10T07:11:25.567Z,32.73
2017-08-10T07:13:53.226Z,33.15
2017-08-10T07:16:21.146Z,33.33
2017-08-10T07:18:48.750Z,33.42
2017-08-10T07:21:16.265Z,33.60
2017-08-10T07:23:43.841Z,33.94
2017-08-10T07:26:11.356Z,34.28
2017-08-10T07:28:38.900Z,33.89
2017-08-10T07:31:06.449Z,34.31
2017-08-10T07:33:33.971Z,33.77
2017-08-10T07:36:01.528Z,33.21
2017-08-10T07:38:29.367Z,33.66
2017-08-10T07:40:56.909Z,33.98
2017-08-10T07:43:24.686Z,34.11
2017-08-10T07:45:52.264Z,34.27
2017-08-10T07:48:20.060Z,34.57
2017-08-10T07:50:47.615Z,34.86
2017-08-10T07:53:15.191Z,34.42
2017-08-10T07:55:42.993Z,35.06
2017-08-10T07:58:10.559Z,34.84
2017-08-10T08:00:38.787Z,33.96
2017-08-10T08:03:06.314Z,33.95
2017-08-10T08:05:33.891Z,33.94
2017-08-10T08:08:01.494Z,34.04
2017-08-10T08:10:29.289Z,34.48
2017-08-10T08:12:56.839Z,34.73
2017-08-10T08:15:24.406Z,34.69
2017-08-10T08:17:51.980Z,34.31
2017-08-10T08:20:19.596Z,34.40
2017-08-10T08:22:47.191Z,35.34
2017-08-10T08:25:14.769Z,35.52
2017-08-10T08:27:42.524Z,35.38
2017-08-10T08:30:10.135Z,34.69
2017-08-10T08:32:38.084Z,35.01
2017-08-10T08:35:05.695Z,35.77
2017-08-10T08:37:33.401Z,35.01
2017-08-10T08:40:01.200Z,34.93
2017-08-10T08:42:29.002Z,35.54
2017-08-10T08:44:57.343Z,35.38
2017-08-10T08:47:25.009Z,35.68
2017-08-10T08:49:52.655Z,35.44
2017-08-10T08:52:20.220Z,34.70
2017-08-10T08:54:48.752Z,35.22
2017-08-10T08:57:16.351Z,35.24
2017-08-10T08:59:44.050Z,35.72
2017-08-10T09:02:11.640Z,36.10
2017-08-10T09:04:39.419Z,35.49
2017-08-10T09:07:07.333Z,35.20
2017-08-10T09:09:34.996Z,35.20
2017-08-10T09:12:02.816Z,35.39
2017-08-10T09:14:30.371Z,35.01
2017-08-10T09:16:57.975Z,35.19
2017-08-10T09:19:25.632Z,35.85
2017-08-10T09:21:53.288Z,36.02
2017-08-10T09:24:20.895Z,35.89
2017-08-10T09:26:48.535Z,36.28
2017-08-10T09:29:17.761Z,34.41
2017-08-10T09:31:45.384Z,35.22
2017-08-10T09:34:13.438Z,35.75
2017-08-10T09:36:41.001Z,34.73
2017-08-10T09:39:09.549Z,34.05
2017-08-10T09:41:37.090Z,33.93
2017-08-10T09:44:04.624Z,34.03
2017-08-10T09:46:32.240Z,33.16
2017-08-10T09:49:00.128Z,32.96
2017-08-10T09:51:27.770Z,33.00
2017-08-10T09:53:57.069Z,32.58
2017-08-10T09:56:24.622Z,32.83
2017-08-10T09:58:53.451Z,32.62
2017-08-10T10:01:21.172Z,32.48
2017-08-10T10:03:48.767Z,32.72
2017-08-10T10:06:18.137Z,33.23
2017-08-10T10:08:45.840Z,33.76
2017-08-10T10:11:13.393Z,34.11
2017-08-10T10:13:41.692Z,33.70
2017-08-10T10:16:09.265Z,34.14
2017-08-10T10:18:37.809Z,33.50
2017-08-10T10:21:05.343Z,33.79
2017-08-10T10:23:33.192Z,34.17
2017-08-10T10:26:00.703Z,34.93
2017-08-10T10:28:29.620Z,34.97
2017-08-10T10:30:57.260Z,35.32
2017-08-10T10:33:25.502Z,35.05
2017-08-10T10:35:53.087Z,34.49
2017-08-10T10:38:30.182Z,34.78
2017-08-10T10:41:10.485Z,34.10
2017-08-10T10:43:38.689Z,33.85
2017-08-10T10:46:06.288Z,33.87
2017-08-10T10:48:33.818Z,34.20
2017-08-10T10:51:01.418Z,34.90
2017-08-10T10:53:28.994Z,33.88
2017-08-10T10:55:58.151Z,33.84
2017-08-10T10:58:25.821Z,33.78
2017-08-10T11:00:53.828Z,33.66
2017-08-10T11:03:21.391Z,34.07
2017-08-10T11:05:49.023Z,34.25
2017-08-10T11:08:16.619Z,33.83
2017-08-10T11:10:44.155Z,33.89
2017-08-10T11:13:11.819Z,34.04
2017-08-10T11:15:40.434Z,33.89
2017-08-10T11:18:08.206Z,33.79
2017-08-10T11:20:35.745Z,33.89
2017-08-10T11:23:03.707Z,34.29
2017-08-10T11:25:31.889Z,33.57
2017-08-10T11:27:59.553Z,34.01
2017-08-10T11:30:27.207Z,34.19
2017-08-10T11:32:54.956Z,34.20
2017-08-10T11:35:22.681Z,34.86
2017-08-10T11:37:50.264Z,34.82
2017-08-10T11:40:17.885Z,35.23
2017-08-10T11:42:45.443Z,34.88
2017-08-10T11:45:13.030Z,34.83
2017-08-10T11:47:41.730Z,34.55
2017-08-10T11:50:09.673Z,34.42
2017-08-10T11:52:37.366Z,34.47
2017-08-10T11:55:05.024Z,34.75
2017-08-10T11:57:32.575Z,35.02
2017-08-10T12:00:00.155Z,35.36
2017-08-10T12:02:27.731Z,35.55
2017-08-10T12:04:55.307Z,35.38
2017-08-10T12:07:22.830Z,35.02
2017-08-10T12:09:51.331Z,34.70
2017-08-10T12:12:18.851Z,34.02
2017-08-10T12:14:47.034Z,33.84
2017-08-10T12:17:14.931Z,33.70
2017-08-10T12:19:42.556Z,33.58
2017-08-10T12:22:10.132Z,33.30
2017-08-10T12:24:37.706Z,33.08
2017-08-10T12:27:08.090Z,33.23
2017-08-10T12:29:36.226Z,33.35
2017-08-10T12:32:07.097Z,33.47
2017-08-10T12:34:35.622Z,33.27
2017-08-10T12:37:03.327Z,33.62
2017-08-10T12:39:32.612Z,33.75
2017-08-10T12:42:00.212Z,34.07
2017-08-10T12:44:27.871Z,33.81
2017-08-10T12:46:55.499Z,34.08
2017-08-10T12:49:23.162Z,34.62
2017-08-10T12:51:51.980Z,34.85
2017-08-10T12:54:19.700Z,35.12
2017-08-10T12:56:47.258Z,34.93
2017-08-10T12:59:14.868Z,34.63
2017-08-10T13:01:42.451Z,34.54
2017-08-10T13:04:10.213Z,34.09
2017-08-10T13:06:37.783Z,34.00
2017-08-10T13:09:05.509Z,33.23
2017-08-10T13:11:42.315Z,33.75
2017-08-10T13:14:12.755Z,33.72
2017-08-10T13:16:40.476Z,33.92
2017-08-10T13:19:10.315Z,34.41
2017-08-10T13:21:38.103Z,34.27
2017-08-10T13:24:05.668Z,33.92
2017-08-10T13:26:33.332Z,33.75
2017-08-10T13:29:04.573Z,33.56
2017-08-10T13:31:32.205Z,33.58
2017-08-10T13:36:40.439Z,33.41
2017-08-10T13:39:08.076Z,33.41
2017-08-10T13:41:35.643Z,33.23
2017-08-10T13:44:03.230Z,33.23
2017-08-10T13:46:30.832Z,33.27
2017-08-10T13:48:59.094Z,33.29
2017-08-10T13:51:26.697Z,33.25
2017-08-10T13:53:54.544Z,33.46
2017-08-10T13:56:22.172Z,33.44
2017-08-10T13:58:49.767Z,33.63
2017-08-10T14:01:17.307Z,33.70
2017-08-10T14:03:45.142Z,33.77
2017-08-10T14:06:12.701Z,33.71
2017-08-10T14:08:41.695Z,33.56
2017-08-10T14:11:09.269Z,33.65
2017-08-10T14:13:37.407Z,33.74
2017-08-10T14:16:05.030Z,33.94
2017-08-10T14:18:42.587Z,33.86
2017-08-10T14:21:10.521Z,33.92
2017-08-10T14:23:38.118Z,33.77
2017-08-10T14:26:06.486Z,33.64
2017-08-10T14:28:34.072Z,33.81
2017-08-10T14:31:01.822Z,33.82
2017-08-10T14:33:29.462Z,33.76
2017-08-10T14:35:57.002Z,33.56
2017-08-10T14:38:24.673Z,33.49
2017-08-10T14:40:52.486Z,33.45
2017-08-10T14:43:20.244Z,33.53
2017-08-10T14:45:47.881Z,33.42
2017-08-10T14:48:15.441Z,33.33
2017-08-10T14:50:44.448Z,33.40
2017-08-10T14:53:12.570Z,33.31
2017-08-10T14:55:41.782Z,33.30
2017-08-10T14:58:10.173Z,33.33
2017-08-10T15:00:37.751Z,33.30
2017-08-10T15:03:05.341Z,33.27
2017-08-10T15:05:33.135Z,33.40
2017-08-10T15:08:01.492Z,33.36
2017-08-10T15:10:29.448Z,33.29
2017-08-10T15:12:56.969Z,33.06
2017-08-10T15:15:24.594Z,33.01
2017-08-10T15:17:52.117Z,33.06
2017-08-10T15:20:19.704Z,32.99
2017-08-10T15:22:47.343Z,32.89
2017-08-10T15:25:14.869Z,32.75
2017-08-10T15:27:42.433Z,32.78
2017-08-10T15:30:10.175Z,32.66
2017-08-10T15:32:37.901Z,32.55
2017-08-10T15:35:05.491Z,32.47
2017-08-10T15:37:33.058Z,32.50
2017-08-10T15:40:00.614Z,32.33
2017-08-10T15:42:28.200Z,32.22
2017-08-10T15:44:56.030Z,32.13
2017-08-10T15:47:23.579Z,32.19
2017-08-10T15:49:51.378Z,32.12
2017-08-10T15:52:18.970Z,32.14
2017-08-10T15:54:46.727Z,32.13
2017-08-10T15:57:14.315Z,32.04
2017-08-10T15:59:41.912Z,31.93
2017-08-10T16:02:09.882Z,31.86
2017-08-10T16:04:37.466Z,31.86
2017-08-10T16:07:05.082Z,31.88
2017-08-10T16:09:32.749Z,31.82
2017-08-10T16:12:00.931Z,31.82
2017-08-10T16:14:28.788Z,31.78
2017-08-10T16:16:56.342Z,31.76
2017-08-10T16:19:23.903Z,31.66
2017-08-10T16:21:51.834Z,31.60
2017-08-10T16:24:19.412Z,31.49
2017-08-10T16:26:46.994Z,31.39
2017-08-10T16:29:14.610Z,31.37
2017-08-10T16:31:42.254Z,31.35
2017-08-10T16:34:10.250Z,31.25
2017-08-10T16:36:37.854Z,31.22
2017-08-10T16:39:05.523Z,31.18
2017-08-10T16:41:33.344Z,31.20
2017-08-10T16:44:00.879Z,31.23
2017-08-10T16:46:28.442Z,30.97
2017-08-10T16:48:55.971Z,30.99
2017-08-10T16:51:23.611Z,31.04
2017-08-10T16:53:51.195Z,30.98
2017-08-10T16:56:19.107Z,31.05
2017-08-10T16:58:46.955Z,31.01
2017-08-10T17:01:15.370Z,30.92
2017-08-10T17:03:42.977Z,30.77
2017-08-10T17:06:10.574Z,30.68
2017-08-10T17:08:38.283Z,30.65
2017-08-10T17:11:06.159Z,30.46
2017-08-10T17:13:33.705Z,30.42
2017-08-10T17:16:02.181Z,30.31
2017-08-10T17:18:29.747Z,30.38
2017-08-10T17:20:57.347Z,30.35
2017-08-10T17:23:25.015Z,30.29
2017-08-10T17:25:52.799Z,30.12
2017-08-10T17:28:20.419Z,30.14
2017-08-10T17:30:48.111Z,30.11
2017-08-10T17:33:16.033Z,30.09
2017-08-10T17:35:48.561Z,30.04
2017-08-10T17:38:16.217Z,29.99
2017-08-10T17:40:43.839Z,30.05
2017-08-10T17:43:11.897Z,29.97
2017-08-10T17:45:39.523Z,29.76
2017-08-10T17:48:07.063Z,29.71
2017-08-10T17:50:35.658Z,29.68
2017-08-10T17:53:03.692Z,29.64
2017-08-10T17:55:31.441Z,29.57
2017-08-10T17:57:59.129Z,29.45
2017-08-10T18:00:27.131Z,29.31
2017-08-10T18:02:55.391Z,29.26
2017-08-10T18:05:23.826Z,29.14
2017-08-10T18:07:51.511Z,29.02
2017-08-10T18:10:20.670Z,29.00
2017-08-10T18:12:51.065Z,29.00
2017-08-10T18:15:21.430Z,28.93
2017-08-10T18:17:49.942Z,28.90
2017-08-10T18:20:18.919Z,28.90
2017-08-10T18:22:47.091Z,29.03
2017-08-10T18:25:15.582Z,28.98
2017-08-10T18:27:43.823Z,28.95
2017-08-10T18:30:11.596Z,29.00
2017-08-10T18:32:39.226Z,28.86
2017-08-10T18:35:07.367Z,28.94
2017-08-10T18:37:34.980Z,28.90
2017-08-10T18:40:02.543Z,28.93
2017-08-10T18:42:30.114Z,28.83
2017-08-10T18:44:57.794Z,28.86
2017-08-10T18:47:25.365Z,28.77
2017-08-10T18:49:52.908Z,28.50
2017-08-10T18:52:20.507Z,28.48
2017-08-10T18:54:48.251Z,28.33
2017-08-10T18:57:16.697Z,28.41
2017-08-10T18:59:44.541Z,28.36
2017-08-10T19:02:12.143Z,28.41
2017-08-10T19:04:39.889Z,28.18
2017-08-10T19:07:07.498Z,28.00
2017-08-10T19:09:35.204Z,27.90
2017-08-10T19:12:02.773Z,27.85
2017-08-10T19:14:30.580Z,27.71
2017-08-10T19:16:58.555Z,27.59
2017-08-10T19:19:26.570Z,27.44
2017-08-10T19:21:54.540Z,27.56
2017-08-10T19:24:24.342Z,27.26
2017-08-10T19:26:51.940Z,27.34
2017-08-10T19:29:19.633Z,27.19
2017-08-10T19:31:47.314Z,27.25
2017-08-10T19:34:14.925Z,27.27
2017-08-10T19:36:42.504Z,27.20
2017-08-10T19:39:10.069Z,27.14
2017-08-10T19:41:39.008Z,26.87
2017-08-10T19:44:08.519Z,27.19
2017-08-10T19:46:36.291Z,27.11
2017-08-10T19:49:05.119Z,27.24
2017-08-10T19:51:51.197Z,27.25
2017-08-10T19:54:19.810Z,27.24
2017-08-10T19:56:47.421Z,27.26
2017-08-10T19:59:15.838Z,27.19
2017-08-10T20:01:44.194Z,27.11
2017-08-10T20:04:12.383Z,27.08
2017-08-10T20:06:41.690Z,27.12
2017-08-10T20:09:09.330Z,27.20
2017-08-10T20:11:37.027Z,27.20
2017-08-10T20:14:04.665Z,27.12
2017-08-10T20:16:32.243Z,27.18
2017-08-10T20:19:00.887Z,27.14
2017-08-10T20:21:28.462Z,27.09
2017-08-10T20:23:58.756Z,26.89
2017-08-10T20:26:28.916Z,27.01
2017-08-10T20:28:56.517Z,27.08
2017-08-10T20:31:24.222Z,27.13
2017-08-10T20:33:53.608Z,27.22
2017-08-10T20:36:21.533Z,27.15
2017-08-10T20:38:49.484Z,27.02
2017-08-10T20:41:17.107Z,27.08
2017-08-10T20:43:45.029Z,27.17
2017-08-10T20:46:12.828Z,27.18
2017-08-10T20:48:42.997Z,27.14
2017-08-10T20:51:10.659Z,27.15
2017-08-10T20:53:38.619Z,27.10
2017-08-10T20:56:06.243Z,27.10
2017-08-10T20:58:35.168Z,27.11
2017-08-10T21:01:02.974Z,27.02
2017-08-10T21:03:30.823Z,26.97
2017-08-10T21:05:59.078Z,26.98
2017-08-10T21:08:27.733Z,27.06
2017-08-10T21:10:55.410Z,27.22
2017-08-10T21:13:24.347Z,27.22
2017-08-10T21:15:53.712Z,27.38
2017-08-10T21:18:21.682Z,27.42
2017-08-10T21:20:49.895Z,27.35
2017-08-10T21:23:17.707Z,27.16
2017-08-10T21:25:45.366Z,26.91
2017-08-10T21:28:13.309Z,26.79
2017-08-10T21:30:41.315Z,26.77
2017-08-10T21:33:09.919Z,26.47
2017-08-10T21:35:37.535Z,26.33
2017-08-10T21:38:05.185Z,26.17
2017-08-10T21:40:33.000Z,26.12
2017-08-10T21:43:00.818Z,25.95
2017-08-10T21:45:28.535Z,25.59
2017-08-10T21:47:56.091Z,25.68
2017-08-10T21:50:23.681Z,25.53
2017-08-10T21:52:51.284Z,25.44
2017-08-10T21:55:18.857Z,25.33
2017-08-10T21:57:46.697Z,25.25
2017-08-10T22:00:14.344Z,25.24
2017-08-10T22:02:41.899Z,25.24
2017-08-10T22:05:09.649Z,25.16
2017-08-10T22:07:37.283Z,25.15
2017-08-10T22:10:04.837Z,25.02
2017-08-10T22:12:33.568Z,25.01
2017-08-10T22:15:01.182Z,24.98
2017-08-10T22:17:28.879Z,24.84
2017-08-10T22:19:56.510Z,24.79
2017-08-10T22:22:24.137Z,24.58
2017-08-10T22:24:51.701Z,24.60
2017-08-10T22:27:20.406Z,24.71
2017-08-10T22:29:48.027Z,24.63
2017-08-10T22:32:15.618Z,24.50
2017-08-10T22:34:43.168Z,24.50
2017-08-10T22:37:11.104Z,24.44
2017-08-10T22:39:38.715Z,24.41
2017-08-10T22:42:06.545Z,24.43
2017-08-10T22:44:34.092Z,24.36
2017-08-10T22:47:01.678Z,24.29
2017-08-10T22:49:29.272Z,24.15
2017-08-10T22:51:56.840Z,24.16
2017-08-10T22:54:24.451Z,24.08
2017-08-10T22:56:52.396Z,24.08
2017-08-10T22:59:19.975Z,23.93
2017-08-10T23:01:47.598Z,24.04
2017-08-10T23:04:15.480Z,24.04
2017-08-10T23:06:43.064Z,24.09
2017-08-10T23:09:10.719Z,23.93
2017-08-10T23:11:38.774Z,23.90
2017-08-10T23:14:06.803Z,23.83
2017-08-10T23:16:34.442Z,23.75
2017-08-10T23:19:02.057Z,23.77
2017-08-10T23:21:29.699Z,23.78
2017-08-10T23:23:57.314Z,23.88
2017-08-10T23:26:24.939Z,24.00
2017-08-10T23:28:52.621Z,23.98
2017-08-10T23:31:20.272Z,23.99
2017-08-10T23:33:47.873Z,24.00
2017-08-10T23:36:15.443Z,24.06
2017-08-10T23:38:43.258Z,24.02
2017-08-10T23:41:10.918Z,24.13
2017-08-10T23:43:38.536Z,24.21
2017-08-10T23:46:09.148Z,24.26
2017-08-10T23:48:36.772Z,24.32
2017-08-10T23:51:04.459Z,24.34
2017-08-10T23:53:32.138Z,24.40
2017-08-10T23:56:00.656Z,24.39
2017-08-10T23:58:28.303Z,24.34
